sensor_id;sensor_type;location;lat;lon;timestamp;temperature;humidity
64143;DHT22;50437;51.970;5.904;2023-04-16T00:00:52;8.60;99.90
64143;DHT22;50437;51.970;5.904;2023-04-16T00:03:18;8.60;99.90
64143;DHT22;50437;51.970;5.904;2023-04-16T00:05:44;8.60;99.90
64143;DHT22;50437;51.970;5.904;2023-04-16T00:08:10;8.60;99.90
64143;DHT22;50437;51.970;5.904;2023-04-16T00:10:35;8.70;99.90
64143;DHT22;50437;51.970;5.904;2023-04-16T00:13:01;8.60;99.90
64143;DHT22;50437;51.970;5.904;2023-04-16T00:15:27;8.60;99.90
64143;DHT22;50437;51.970;5.904;2023-04-16T00:17:53;8.70;99.90
64143;DHT22;50437;51.970;5.904;2023-04-16T00:20:19;8.60;99.90
64143;DHT22;50437;51.970;5.904;2023-04-16T00:22:45;8.60;99.90
64143;DHT22;50437;51.970;5.904;2023-04-16T00:25:12;8.60;99.90
64143;DHT22;50437;51.970;5.904;2023-04-16T00:27:38;8.60;99.90
64143;DHT22;50437;51.970;5.904;2023-04-16T00:30:04;8.70;99.90
64143;DHT22;50437;51.970;5.904;2023-04-16T00:32:30;8.60;99.90
64143;DHT22;50437;51.970;5.904;2023-04-16T00:34:56;8.60;99.90
64143;DHT22;50437;51.970;5.904;2023-04-16T00:37:22;8.60;99.90
64143;DHT22;50437;51.970;5.904;2023-04-16T00:39:49;8.60;99.90
64143;DHT22;50437;51.970;5.904;2023-04-16T00:42:14;8.50;99.90
64143;DHT22;50437;51.970;5.904;2023-04-16T00:44:40;8.50;99.90
64143;DHT22;50437;51.970;5.904;2023-04-16T00:47:06;8.50;99.90
64143;DHT22;50437;51.970;5.904;2023-04-16T00:49:33;8.50;99.90
64143;DHT22;50437;51.970;5.904;2023-04-16T00:51:59;8.50;99.90
64143;DHT22;50437;51.970;5.904;2023-04-16T00:54:27;8.50;99.90
64143;DHT22;50437;51.970;5.904;2023-04-16T00:56:53;8.60;99.90
64143;DHT22;50437;51.970;5.904;2023-04-16T00:59:20;8.50;99.90
64143;DHT22;50437;51.970;5.904;2023-04-16T01:01:46;8.60;99.90
64143;DHT22;50437;51.970;5.904;2023-04-16T01:04:13;8.60;99.90
64143;DHT22;50437;51.970;5.904;2023-04-16T01:06:39;8.60;99.90
64143;DHT22;50437;51.970;5.904;2023-04-16T01:09:05;8.60;99.90
64143;DHT22;50437;51.970;5.904;2023-04-16T01:11:31;8.60;99.90
64143;DHT22;50437;51.970;5.904;2023-04-16T01:13:57;8.60;99.90
64143;DHT22;50437;51.970;5.904;2023-04-16T01:16:23;8.60;99.90
64143;DHT22;50437;51.970;5.904;2023-04-16T01:18:51;8.60;99.90
64143;DHT22;50437;51.970;5.904;2023-04-16T01:21:17;8.60;99.90
64143;DHT22;50437;51.970;5.904;2023-04-16T01:23:43;8.70;99.90
64143;DHT22;50437;51.970;5.904;2023-04-16T01:26:09;8.60;99.90
64143;DHT22;50437;51.970;5.904;2023-04-16T01:28:35;8.60;99.90
64143;DHT22;50437;51.970;5.904;2023-04-16T01:31:01;8.60;99.90
64143;DHT22;50437;51.970;5.904;2023-04-16T01:33:47;8.50;99.90
64143;DHT22;50437;51.970;5.904;2023-04-16T01:36:13;8.60;99.90
64143;DHT22;50437;51.970;5.904;2023-04-16T01:38:39;8.60;99.90
64143;DHT22;50437;51.970;5.904;2023-04-16T01:41:05;8.60;99.90
64143;DHT22;50437;51.970;5.904;2023-04-16T01:43:31;8.60;99.90
64143;DHT22;50437;51.970;5.904;2023-04-16T01:46:09;8.70;99.90
64143;DHT22;50437;51.970;5.904;2023-04-16T01:48:35;8.60;99.90
64143;DHT22;50437;51.970;5.904;2023-04-16T01:51:01;8.70;99.90
64143;DHT22;50437;51.970;5.904;2023-04-16T01:53:29;8.70;99.90
64143;DHT22;50437;51.970;5.904;2023-04-16T01:55:55;8.60;99.90
64143;DHT22;50437;51.970;5.904;2023-04-16T01:58:21;8.60;99.90
64143;DHT22;50437;51.970;5.904;2023-04-16T02:00:47;8.60;99.90
64143;DHT22;50437;51.970;5.904;2023-04-16T02:03:14;8.70;99.90
64143;DHT22;50437;51.970;5.904;2023-04-16T02:05:42;8.70;99.90
64143;DHT22;50437;51.970;5.904;2023-04-16T02:08:08;8.70;99.90
64143;DHT22;50437;51.970;5.904;2023-04-16T02:10:34;8.80;99.90
64143;DHT22;50437;51.970;5.904;2023-04-16T02:13:01;8.70;99.90
64143;DHT22;50437;51.970;5.904;2023-04-16T02:15:26;8.70;99.90
64143;DHT22;50437;51.970;5.904;2023-04-16T02:17:53;8.70;99.90
64143;DHT22;50437;51.970;5.904;2023-04-16T02:20:22;8.70;99.90
64143;DHT22;50437;51.970;5.904;2023-04-16T02:22:54;8.70;99.90
64143;DHT22;50437;51.970;5.904;2023-04-16T02:25:23;8.70;99.90
64143;DHT22;50437;51.970;5.904;2023-04-16T02:27:54;8.70;99.90
64143;DHT22;50437;51.970;5.904;2023-04-16T02:30:27;8.70;99.90
64143;DHT22;50437;51.970;5.904;2023-04-16T02:32:53;8.80;99.90
64143;DHT22;50437;51.970;5.904;2023-04-16T02:35:20;8.80;99.90
64143;DHT22;50437;51.970;5.904;2023-04-16T02:37:46;8.80;99.90
64143;DHT22;50437;51.970;5.904;2023-04-16T02:40:12;8.80;99.90
64143;DHT22;50437;51.970;5.904;2023-04-16T02:42:38;8.80;99.90
64143;DHT22;50437;51.970;5.904;2023-04-16T02:45:04;8.80;99.90
64143;DHT22;50437;51.970;5.904;2023-04-16T02:47:31;8.80;99.90
64143;DHT22;50437;51.970;5.904;2023-04-16T02:49:57;8.80;99.90
64143;DHT22;50437;51.970;5.904;2023-04-16T02:52:23;8.80;99.90
64143;DHT22;50437;51.970;5.904;2023-04-16T02:54:48;8.70;99.90
64143;DHT22;50437;51.970;5.904;2023-04-16T02:57:14;8.70;99.90
64143;DHT22;50437;51.970;5.904;2023-04-16T02:59:41;8.70;99.90
64143;DHT22;50437;51.970;5.904;2023-04-16T03:02:07;8.70;99.90
64143;DHT22;50437;51.970;5.904;2023-04-16T03:04:33;8.70;99.90
64143;DHT22;50437;51.970;5.904;2023-04-16T03:06:59;8.70;99.90
64143;DHT22;50437;51.970;5.904;2023-04-16T03:09:25;8.80;99.90
64143;DHT22;50437;51.970;5.904;2023-04-16T03:11:51;8.90;99.90
64143;DHT22;50437;51.970;5.904;2023-04-16T03:14:17;8.80;99.90
64143;DHT22;50437;51.970;5.904;2023-04-16T03:16:43;8.90;99.90
64143;DHT22;50437;51.970;5.904;2023-04-16T03:19:09;8.90;99.90
64143;DHT22;50437;51.970;5.904;2023-04-16T03:21:35;8.80;99.90
64143;DHT22;50437;51.970;5.904;2023-04-16T03:24:01;8.80;99.90
64143;DHT22;50437;51.970;5.904;2023-04-16T03:26:27;8.70;99.90
64143;DHT22;50437;51.970;5.904;2023-04-16T03:28:54;8.70;99.90
64143;DHT22;50437;51.970;5.904;2023-04-16T03:31:22;8.70;99.90
64143;DHT22;50437;51.970;5.904;2023-04-16T03:33:48;8.70;99.90
64143;DHT22;50437;51.970;5.904;2023-04-16T03:36:14;8.70;99.90
64143;DHT22;50437;51.970;5.904;2023-04-16T03:38:40;8.70;99.90
64143;DHT22;50437;51.970;5.904;2023-04-16T03:41:06;8.80;99.90
64143;DHT22;50437;51.970;5.904;2023-04-16T03:43:33;8.80;99.90
64143;DHT22;50437;51.970;5.904;2023-04-16T03:45:59;8.80;99.90
64143;DHT22;50437;51.970;5.904;2023-04-16T03:48:25;8.80;99.90
64143;DHT22;50437;51.970;5.904;2023-04-16T03:50:52;8.90;99.90
64143;DHT22;50437;51.970;5.904;2023-04-16T03:53:19;8.80;99.90
64143;DHT22;50437;51.970;5.904;2023-04-16T03:55:50;8.80;99.90
64143;DHT22;50437;51.970;5.904;2023-04-16T03:58:16;8.80;99.90
64143;DHT22;50437;51.970;5.904;2023-04-16T04:00:43;8.70;99.90
64143;DHT22;50437;51.970;5.904;2023-04-16T04:03:12;8.80;99.90
64143;DHT22;50437;51.970;5.904;2023-04-16T04:05:42;8.80;99.90
64143;DHT22;50437;51.970;5.904;2023-04-16T04:08:10;8.90;99.90
64143;DHT22;50437;51.970;5.904;2023-04-16T04:10:36;8.90;99.90
64143;DHT22;50437;51.970;5.904;2023-04-16T04:13:04;8.80;99.90
64143;DHT22;50437;51.970;5.904;2023-04-16T04:15:31;8.70;99.90
64143;DHT22;50437;51.970;5.904;2023-04-16T04:17:57;8.70;99.90
64143;DHT22;50437;51.970;5.904;2023-04-16T04:20:24;8.80;99.90
64143;DHT22;50437;51.970;5.904;2023-04-16T04:22:51;8.80;99.90
64143;DHT22;50437;51.970;5.904;2023-04-16T04:25:20;8.60;99.90
64143;DHT22;50437;51.970;5.904;2023-04-16T04:27:46;8.70;99.90
64143;DHT22;50437;51.970;5.904;2023-04-16T04:30:12;8.70;99.90
64143;DHT22;50437;51.970;5.904;2023-04-16T04:32:40;8.70;99.90
64143;DHT22;50437;51.970;5.904;2023-04-16T04:35:06;8.70;99.90
64143;DHT22;50437;51.970;5.904;2023-04-16T04:37:32;8.70;99.90
64143;DHT22;50437;51.970;5.904;2023-04-16T04:40:02;8.70;99.90
64143;DHT22;50437;51.970;5.904;2023-04-16T04:42:29;8.70;99.90
64143;DHT22;50437;51.970;5.904;2023-04-16T04:44:55;8.80;99.90
64143;DHT22;50437;51.970;5.904;2023-04-16T04:47:22;8.80;99.90
64143;DHT22;50437;51.970;5.904;2023-04-16T04:49:48;8.80;99.90
64143;DHT22;50437;51.970;5.904;2023-04-16T04:52:14;8.70;99.90
64143;DHT22;50437;51.970;5.904;2023-04-16T04:54:40;8.80;99.90
64143;DHT22;50437;51.970;5.904;2023-04-16T04:57:06;8.80;99.90
64143;DHT22;50437;51.970;5.904;2023-04-16T04:59:33;8.80;99.90
64143;DHT22;50437;51.970;5.904;2023-04-16T05:01:59;8.60;99.90
64143;DHT22;50437;51.970;5.904;2023-04-16T05:04:27;8.70;99.90
64143;DHT22;50437;51.970;5.904;2023-04-16T05:06:55;8.60;99.90
64143;DHT22;50437;51.970;5.904;2023-04-16T05:09:21;8.70;99.90
64143;DHT22;50437;51.970;5.904;2023-04-16T05:11:47;8.80;99.90
64143;DHT22;50437;51.970;5.904;2023-04-16T05:14:13;8.80;99.90
64143;DHT22;50437;51.970;5.904;2023-04-16T05:16:39;8.80;99.90
64143;DHT22;50437;51.970;5.904;2023-04-16T05:19:05;8.80;99.90
64143;DHT22;50437;51.970;5.904;2023-04-16T05:21:32;8.90;99.90
64143;DHT22;50437;51.970;5.904;2023-04-16T05:23:58;8.90;99.90
64143;DHT22;50437;51.970;5.904;2023-04-16T05:26:24;8.90;99.90
64143;DHT22;50437;51.970;5.904;2023-04-16T05:28:50;8.90;99.90
64143;DHT22;50437;51.970;5.904;2023-04-16T05:31:16;8.90;99.90
64143;DHT22;50437;51.970;5.904;2023-04-16T05:33:42;8.90;99.90
64143;DHT22;50437;51.970;5.904;2023-04-16T05:36:08;8.90;99.90
64143;DHT22;50437;51.970;5.904;2023-04-16T05:38:34;8.90;99.90
64143;DHT22;50437;51.970;5.904;2023-04-16T05:41:00;8.90;99.90
64143;DHT22;50437;51.970;5.904;2023-04-16T05:43:26;8.90;99.90
64143;DHT22;50437;51.970;5.904;2023-04-16T05:45:52;8.90;99.90
64143;DHT22;50437;51.970;5.904;2023-04-16T05:48:18;9.00;99.90
64143;DHT22;50437;51.970;5.904;2023-04-16T05:50:44;9.00;99.90
64143;DHT22;50437;51.970;5.904;2023-04-16T05:53:10;9.10;99.90
64143;DHT22;50437;51.970;5.904;2023-04-16T05:55:38;9.00;99.90
64143;DHT22;50437;51.970;5.904;2023-04-16T05:58:04;9.00;99.90
64143;DHT22;50437;51.970;5.904;2023-04-16T06:00:31;8.90;99.90
64143;DHT22;50437;51.970;5.904;2023-04-16T06:02:58;8.90;99.90
64143;DHT22;50437;51.970;5.904;2023-04-16T06:05:24;9.00;99.90
64143;DHT22;50437;51.970;5.904;2023-04-16T06:07:51;9.00;99.90
64143;DHT22;50437;51.970;5.904;2023-04-16T06:10:17;9.10;99.90
64143;DHT22;50437;51.970;5.904;2023-04-16T06:12:43;9.10;99.90
64143;DHT22;50437;51.970;5.904;2023-04-16T06:15:09;9.10;99.90
64143;DHT22;50437;51.970;5.904;2023-04-16T06:17:35;9.10;99.90
64143;DHT22;50437;51.970;5.904;2023-04-16T06:20:01;9.10;99.90
64143;DHT22;50437;51.970;5.904;2023-04-16T06:22:27;9.10;99.90
64143;DHT22;50437;51.970;5.904;2023-04-16T06:24:56;9.20;99.90
64143;DHT22;50437;51.970;5.904;2023-04-16T06:27:22;9.20;99.90
64143;DHT22;50437;51.970;5.904;2023-04-16T06:29:48;9.10;99.90
64143;DHT22;50437;51.970;5.904;2023-04-16T06:32:14;9.10;99.90
64143;DHT22;50437;51.970;5.904;2023-04-16T06:34:41;9.20;99.90
64143;DHT22;50437;51.970;5.904;2023-04-16T06:37:07;9.20;99.90
64143;DHT22;50437;51.970;5.904;2023-04-16T06:39:33;9.20;99.90
64143;DHT22;50437;51.970;5.904;2023-04-16T06:41:59;9.20;99.90
64143;DHT22;50437;51.970;5.904;2023-04-16T06:44:26;9.20;99.90
64143;DHT22;50437;51.970;5.904;2023-04-16T06:46:52;9.40;99.90
64143;DHT22;50437;51.970;5.904;2023-04-16T06:49:21;9.50;99.90
64143;DHT22;50437;51.970;5.904;2023-04-16T06:51:50;9.50;99.90
64143;DHT22;50437;51.970;5.904;2023-04-16T06:54:16;9.70;99.90
64143;DHT22;50437;51.970;5.904;2023-04-16T06:56:44;9.80;99.90
64143;DHT22;50437;51.970;5.904;2023-04-16T06:59:10;9.80;99.90
64143;DHT22;50437;51.970;5.904;2023-04-16T07:01:36;9.80;99.90
64143;DHT22;50437;51.970;5.904;2023-04-16T07:04:02;9.80;99.90
64143;DHT22;50437;51.970;5.904;2023-04-16T07:06:28;9.80;99.90
64143;DHT22;50437;51.970;5.904;2023-04-16T07:08:54;9.80;99.90
64143;DHT22;50437;51.970;5.904;2023-04-16T07:11:20;9.70;99.90
64143;DHT22;50437;51.970;5.904;2023-04-16T07:13:47;9.70;99.90
64143;DHT22;50437;51.970;5.904;2023-04-16T07:16:13;9.70;99.90
64143;DHT22;50437;51.970;5.904;2023-04-16T07:18:39;9.80;99.90
64143;DHT22;50437;51.970;5.904;2023-04-16T07:21:05;9.80;99.90
64143;DHT22;50437;51.970;5.904;2023-04-16T07:23:33;9.90;99.90
64143;DHT22;50437;51.970;5.904;2023-04-16T07:26:00;9.90;99.90
64143;DHT22;50437;51.970;5.904;2023-04-16T07:28:25;9.90;99.90
64143;DHT22;50437;51.970;5.904;2023-04-16T07:30:51;10.00;99.90
64143;DHT22;50437;51.970;5.904;2023-04-16T07:33:17;10.00;99.90
64143;DHT22;50437;51.970;5.904;2023-04-16T07:35:43;10.10;99.90
64143;DHT22;50437;51.970;5.904;2023-04-16T07:38:10;10.20;99.90
64143;DHT22;50437;51.970;5.904;2023-04-16T07:40:36;10.30;99.90
64143;DHT22;50437;51.970;5.904;2023-04-16T07:43:02;10.30;99.90
64143;DHT22;50437;51.970;5.904;2023-04-16T07:45:28;10.30;99.90
64143;DHT22;50437;51.970;5.904;2023-04-16T07:47:54;10.50;99.90
64143;DHT22;50437;51.970;5.904;2023-04-16T07:50:20;10.40;99.90
64143;DHT22;50437;51.970;5.904;2023-04-16T07:52:46;10.50;99.90
64143;DHT22;50437;51.970;5.904;2023-04-16T07:55:17;10.50;99.90
64143;DHT22;50437;51.970;5.904;2023-04-16T07:57:43;10.50;99.90
64143;DHT22;50437;51.970;5.904;2023-04-16T08:00:09;10.40;99.90
64143;DHT22;50437;51.970;5.904;2023-04-16T08:02:39;10.50;99.90
64143;DHT22;50437;51.970;5.904;2023-04-16T08:05:05;10.40;99.90
64143;DHT22;50437;51.970;5.904;2023-04-16T08:07:31;10.40;99.90
64143;DHT22;50437;51.970;5.904;2023-04-16T08:09:58;10.40;99.90
64143;DHT22;50437;51.970;5.904;2023-04-16T08:12:24;10.40;99.90
64143;DHT22;50437;51.970;5.904;2023-04-16T08:14:50;10.40;99.90
64143;DHT22;50437;51.970;5.904;2023-04-16T08:17:16;10.60;99.90
64143;DHT22;50437;51.970;5.904;2023-04-16T08:19:42;10.60;99.90
64143;DHT22;50437;51.970;5.904;2023-04-16T08:22:10;10.70;99.90
64143;DHT22;50437;51.970;5.904;2023-04-16T08:24:36;10.50;99.90
64143;DHT22;50437;51.970;5.904;2023-04-16T08:27:02;10.50;99.90
64143;DHT22;50437;51.970;5.904;2023-04-16T08:29:29;10.60;99.90
64143;DHT22;50437;51.970;5.904;2023-04-16T08:31:55;10.70;99.90
64143;DHT22;50437;51.970;5.904;2023-04-16T08:34:21;10.70;99.90
64143;DHT22;50437;51.970;5.904;2023-04-16T08:36:47;10.70;99.90
64143;DHT22;50437;51.970;5.904;2023-04-16T08:39:13;10.60;99.90
64143;DHT22;50437;51.970;5.904;2023-04-16T08:41:43;10.70;99.90
64143;DHT22;50437;51.970;5.904;2023-04-16T08:44:16;10.70;99.90
64143;DHT22;50437;51.970;5.904;2023-04-16T08:46:44;10.70;99.90
64143;DHT22;50437;51.970;5.904;2023-04-16T08:49:12;10.60;99.90
64143;DHT22;50437;51.970;5.904;2023-04-16T08:51:40;10.90;99.90
64143;DHT22;50437;51.970;5.904;2023-04-16T08:54:08;11.00;99.90
64143;DHT22;50437;51.970;5.904;2023-04-16T08:56:36;11.00;99.90
64143;DHT22;50437;51.970;5.904;2023-04-16T08:59:04;11.10;99.90
64143;DHT22;50437;51.970;5.904;2023-04-16T09:01:31;11.10;99.90
64143;DHT22;50437;51.970;5.904;2023-04-16T09:03:57;11.20;99.90
64143;DHT22;50437;51.970;5.904;2023-04-16T09:06:24;11.20;99.90
64143;DHT22;50437;51.970;5.904;2023-04-16T09:08:53;11.40;99.90
64143;DHT22;50437;51.970;5.904;2023-04-16T09:11:19;11.40;99.90
64143;DHT22;50437;51.970;5.904;2023-04-16T09:13:45;11.30;99.90
64143;DHT22;50437;51.970;5.904;2023-04-16T09:16:12;11.40;99.90
64143;DHT22;50437;51.970;5.904;2023-04-16T09:18:38;11.50;99.90
64143;DHT22;50437;51.970;5.904;2023-04-16T09:21:04;11.50;99.90
64143;DHT22;50437;51.970;5.904;2023-04-16T09:23:30;11.60;99.90
64143;DHT22;50437;51.970;5.904;2023-04-16T09:25:57;11.60;99.90
64143;DHT22;50437;51.970;5.904;2023-04-16T09:28:39;11.70;99.90
64143;DHT22;50437;51.970;5.904;2023-04-16T09:31:07;11.60;99.90
64143;DHT22;50437;51.970;5.904;2023-04-16T09:33:33;11.70;99.90
64143;DHT22;50437;51.970;5.904;2023-04-16T09:35:58;11.70;99.90
64143;DHT22;50437;51.970;5.904;2023-04-16T09:38:25;11.50;99.90
64143;DHT22;50437;51.970;5.904;2023-04-16T09:41:06;11.80;99.90
64143;DHT22;50437;51.970;5.904;2023-04-16T09:43:33;12.10;99.90
64143;DHT22;50437;51.970;5.904;2023-04-16T09:46:00;12.60;99.90
64143;DHT22;50437;51.970;5.904;2023-04-16T09:48:29;12.30;99.90
64143;DHT22;50437;51.970;5.904;2023-04-16T09:50:56;12.30;99.90
64143;DHT22;50437;51.970;5.904;2023-04-16T09:53:25;12.40;99.90
64143;DHT22;50437;51.970;5.904;2023-04-16T09:55:54;12.70;99.90
64143;DHT22;50437;51.970;5.904;2023-04-16T09:58:20;13.00;99.90
64143;DHT22;50437;51.970;5.904;2023-04-16T10:00:54;13.60;99.90
64143;DHT22;50437;51.970;5.904;2023-04-16T10:06:23;13.00;99.90
64143;DHT22;50437;51.970;5.904;2023-04-16T10:08:53;12.70;99.90
64143;DHT22;50437;51.970;5.904;2023-04-16T10:11:21;12.70;99.90
64143;DHT22;50437;51.970;5.904;2023-04-16T10:13:48;12.80;99.90
64143;DHT22;50437;51.970;5.904;2023-04-16T10:16:14;13.00;99.90
64143;DHT22;50437;51.970;5.904;2023-04-16T10:18:41;12.90;99.90
64143;DHT22;50437;51.970;5.904;2023-04-16T10:21:07;12.90;99.90
64143;DHT22;50437;51.970;5.904;2023-04-16T10:23:33;13.00;99.90
64143;DHT22;50437;51.970;5.904;2023-04-16T10:25:59;13.30;99.90
64143;DHT22;50437;51.970;5.904;2023-04-16T10:28:26;13.60;99.90
64143;DHT22;50437;51.970;5.904;2023-04-16T10:30:54;14.10;99.90
64143;DHT22;50437;51.970;5.904;2023-04-16T10:33:21;14.40;99.90
64143;DHT22;50437;51.970;5.904;2023-04-16T10:35:48;14.30;99.90
64143;DHT22;50437;51.970;5.904;2023-04-16T10:40:48;14.00;99.90
64143;DHT22;50437;51.970;5.904;2023-04-16T10:43:17;13.80;99.90
64143;DHT22;50437;51.970;5.904;2023-04-16T10:45:43;13.60;99.90
64143;DHT22;50437;51.970;5.904;2023-04-16T10:48:09;13.70;99.90
64143;DHT22;50437;51.970;5.904;2023-04-16T10:50:36;13.90;99.90
64143;DHT22;50437;51.970;5.904;2023-04-16T10:56:31;14.00;99.90
64143;DHT22;50437;51.970;5.904;2023-04-16T10:58:37;14.10;99.90
64143;DHT22;50437;51.970;5.904;2023-04-16T11:01:10;13.90;99.90
64143;DHT22;50437;51.970;5.904;2023-04-16T11:03:41;13.90;99.90
64143;DHT22;50437;51.970;5.904;2023-04-16T11:06:13;14.00;99.90
64143;DHT22;50437;51.970;5.904;2023-04-16T11:08:41;14.30;99.90
64143;DHT22;50437;51.970;5.904;2023-04-16T11:11:13;14.50;99.90
64143;DHT22;50437;51.970;5.904;2023-04-16T11:13:42;15.10;99.90
64143;DHT22;50437;51.970;5.904;2023-04-16T11:16:09;15.60;99.90
64143;DHT22;50437;51.970;5.904;2023-04-16T11:18:35;15.20;99.90
64143;DHT22;50437;51.970;5.904;2023-04-16T11:21:01;14.60;99.90
64143;DHT22;50437;51.970;5.904;2023-04-16T11:23:27;14.70;99.90
64143;DHT22;50437;51.970;5.904;2023-04-16T11:25:53;14.80;99.90
64143;DHT22;50437;51.970;5.904;2023-04-16T11:28:40;14.80;99.90
64143;DHT22;50437;51.970;5.904;2023-04-16T11:31:10;15.00;99.90
64143;DHT22;50437;51.970;5.904;2023-04-16T11:33:37;15.00;99.90
64143;DHT22;50437;51.970;5.904;2023-04-16T11:36:03;14.90;99.90
64143;DHT22;50437;51.970;5.904;2023-04-16T11:38:36;14.60;99.90
64143;DHT22;50437;51.970;5.904;2023-04-16T11:41:03;14.90;99.90
64143;DHT22;50437;51.970;5.904;2023-04-16T11:43:29;14.20;99.90
64143;DHT22;50437;51.970;5.904;2023-04-16T11:48:21;14.50;99.90
64143;DHT22;50437;51.970;5.904;2023-04-16T11:50:55;14.80;99.90
64143;DHT22;50437;51.970;5.904;2023-04-16T11:53:24;14.80;99.90
64143;DHT22;50437;51.970;5.904;2023-04-16T11:55:50;14.50;99.90
64143;DHT22;50437;51.970;5.904;2023-04-16T11:58:16;14.50;99.90
64143;DHT22;50437;51.970;5.904;2023-04-16T12:00:42;14.40;99.90
64143;DHT22;50437;51.970;5.904;2023-04-16T12:03:08;14.60;99.90
64143;DHT22;50437;51.970;5.904;2023-04-16T12:05:35;15.00;99.90
64143;DHT22;50437;51.970;5.904;2023-04-16T12:08:04;15.20;99.90
64143;DHT22;50437;51.970;5.904;2023-04-16T12:10:34;15.30;99.90
64143;DHT22;50437;51.970;5.904;2023-04-16T12:13:13;15.40;99.90
64143;DHT22;50437;51.970;5.904;2023-04-16T12:15:43;15.30;99.90
64143;DHT22;50437;51.970;5.904;2023-04-16T12:18:09;15.30;99.90
64143;DHT22;50437;51.970;5.904;2023-04-16T12:20:39;15.10;99.90
64143;DHT22;50437;51.970;5.904;2023-04-16T12:23:06;15.00;99.90
64143;DHT22;50437;51.970;5.904;2023-04-16T12:25:35;14.90;99.90
64143;DHT22;50437;51.970;5.904;2023-04-16T12:28:01;15.20;99.90
64143;DHT22;50437;51.970;5.904;2023-04-16T12:30:27;15.30;99.90
64143;DHT22;50437;51.970;5.904;2023-04-16T12:33:14;15.30;99.90
64143;DHT22;50437;51.970;5.904;2023-04-16T12:35:41;15.40;99.90
64143;DHT22;50437;51.970;5.904;2023-04-16T12:38:08;15.40;99.90
64143;DHT22;50437;51.970;5.904;2023-04-16T12:40:34;15.20;99.90
64143;DHT22;50437;51.970;5.904;2023-04-16T12:43:01;15.40;99.90
64143;DHT22;50437;51.970;5.904;2023-04-16T12:45:38;15.10;99.90
64143;DHT22;50437;51.970;5.904;2023-04-16T12:48:04;15.00;99.90
64143;DHT22;50437;51.970;5.904;2023-04-16T12:50:33;15.40;99.90
64143;DHT22;50437;51.970;5.904;2023-04-16T12:52:59;15.30;99.90
64143;DHT22;50437;51.970;5.904;2023-04-16T12:55:34;15.40;99.90
64143;DHT22;50437;51.970;5.904;2023-04-16T12:58:00;15.50;99.90
64143;DHT22;50437;51.970;5.904;2023-04-16T13:00:26;14.90;99.90
64143;DHT22;50437;51.970;5.904;2023-04-16T13:02:52;15.10;99.90
64143;DHT22;50437;51.970;5.904;2023-04-16T13:05:18;15.10;99.90
64143;DHT22;50437;51.970;5.904;2023-04-16T13:07:46;14.90;99.90
64143;DHT22;50437;51.970;5.904;2023-04-16T13:10:14;14.90;99.90
64143;DHT22;50437;51.970;5.904;2023-04-16T13:12:40;14.60;99.90
64143;DHT22;50437;51.970;5.904;2023-04-16T13:15:15;14.40;99.90
64143;DHT22;50437;51.970;5.904;2023-04-16T13:17:44;14.80;99.90
64143;DHT22;50437;51.970;5.904;2023-04-16T13:20:10;14.80;99.90
64143;DHT22;50437;51.970;5.904;2023-04-16T13:22:37;15.00;99.90
64143;DHT22;50437;51.970;5.904;2023-04-16T13:25:06;15.30;99.90
64143;DHT22;50437;51.970;5.904;2023-04-16T13:27:32;15.10;99.90
64143;DHT22;50437;51.970;5.904;2023-04-16T13:29:58;14.80;99.90
64143;DHT22;50437;51.970;5.904;2023-04-16T13:32:24;15.10;99.90
64143;DHT22;50437;51.970;5.904;2023-04-16T13:34:51;15.20;99.90
64143;DHT22;50437;51.970;5.904;2023-04-16T13:37:17;15.40;99.90
64143;DHT22;50437;51.970;5.904;2023-04-16T13:39:47;15.30;99.90
64143;DHT22;50437;51.970;5.904;2023-04-16T13:42:15;15.60;99.90
64143;DHT22;50437;51.970;5.904;2023-04-16T13:44:41;15.70;99.90
64143;DHT22;50437;51.970;5.904;2023-04-16T13:47:07;15.60;99.90
64143;DHT22;50437;51.970;5.904;2023-04-16T13:49:34;15.80;99.90
64143;DHT22;50437;51.970;5.904;2023-04-16T13:52:01;15.90;99.90
64143;DHT22;50437;51.970;5.904;2023-04-16T13:54:29;15.60;99.90
64143;DHT22;50437;51.970;5.904;2023-04-16T13:56:55;15.50;99.90
64143;DHT22;50437;51.970;5.904;2023-04-16T13:59:21;15.40;99.90
64143;DHT22;50437;51.970;5.904;2023-04-16T14:01:47;15.30;99.90
64143;DHT22;50437;51.970;5.904;2023-04-16T14:04:15;15.30;99.90
64143;DHT22;50437;51.970;5.904;2023-04-16T14:06:41;15.40;99.90
64143;DHT22;50437;51.970;5.904;2023-04-16T14:09:07;15.40;99.90
64143;DHT22;50437;51.970;5.904;2023-04-16T14:11:35;15.20;99.90
64143;DHT22;50437;51.970;5.904;2023-04-16T14:14:01;15.10;99.90
64143;DHT22;50437;51.970;5.904;2023-04-16T14:16:27;14.80;99.90
64143;DHT22;50437;51.970;5.904;2023-04-16T14:18:53;15.20;99.90
64143;DHT22;50437;51.970;5.904;2023-04-16T14:21:22;15.60;99.90
64143;DHT22;50437;51.970;5.904;2023-04-16T14:23:48;15.60;99.90
64143;DHT22;50437;51.970;5.904;2023-04-16T14:26:14;15.60;99.90
64143;DHT22;50437;51.970;5.904;2023-04-16T14:28:40;15.90;99.90
64143;DHT22;50437;51.970;5.904;2023-04-16T14:31:07;16.10;99.90
64143;DHT22;50437;51.970;5.904;2023-04-16T14:33:33;16.40;99.90
64143;DHT22;50437;51.970;5.904;2023-04-16T14:35:58;15.80;99.90
64143;DHT22;50437;51.970;5.904;2023-04-16T14:38:27;15.90;99.90
64143;DHT22;50437;51.970;5.904;2023-04-16T14:40:53;15.60;99.90
64143;DHT22;50437;51.970;5.904;2023-04-16T14:43:19;15.60;99.90
64143;DHT22;50437;51.970;5.904;2023-04-16T14:46:06;15.20;99.90
64143;DHT22;50437;51.970;5.904;2023-04-16T14:51:58;15.00;99.90
64143;DHT22;50437;51.970;5.904;2023-04-16T14:54:37;15.10;99.90
64143;DHT22;50437;51.970;5.904;2023-04-16T14:57:53;15.20;99.90
64143;DHT22;50437;51.970;5.904;2023-04-16T15:00:41;15.40;99.90
64143;DHT22;50437;51.970;5.904;2023-04-16T15:03:19;15.20;99.90
64143;DHT22;50437;51.970;5.904;2023-04-16T15:05:56;15.20;99.90
64143;DHT22;50437;51.970;5.904;2023-04-16T15:08:46;15.60;99.90
64143;DHT22;50437;51.970;5.904;2023-04-16T15:11:28;15.30;99.90
64143;DHT22;50437;51.970;5.904;2023-04-16T15:13:55;15.40;99.90
64143;DHT22;50437;51.970;5.904;2023-04-16T15:16:21;15.20;99.90
64143;DHT22;50437;51.970;5.904;2023-04-16T15:18:49;14.80;99.90
64143;DHT22;50437;51.970;5.904;2023-04-16T15:21:18;15.10;99.90
64143;DHT22;50437;51.970;5.904;2023-04-16T15:23:44;14.70;99.90
64143;DHT22;50437;51.970;5.904;2023-04-16T15:26:13;14.70;99.90
64143;DHT22;50437;51.970;5.904;2023-04-16T15:28:39;14.60;99.90
64143;DHT22;50437;51.970;5.904;2023-04-16T15:31:05;14.10;99.90
64143;DHT22;50437;51.970;5.904;2023-04-16T15:33:31;14.20;99.90
64143;DHT22;50437;51.970;5.904;2023-04-16T15:35:57;14.20;99.90
64143;DHT22;50437;51.970;5.904;2023-04-16T15:38:26;14.20;99.90
64143;DHT22;50437;51.970;5.904;2023-04-16T15:40:55;14.00;99.90
64143;DHT22;50437;51.970;5.904;2023-04-16T15:43:23;14.10;99.90
64143;DHT22;50437;51.970;5.904;2023-04-16T15:45:51;13.90;99.90
64143;DHT22;50437;51.970;5.904;2023-04-16T15:48:17;14.00;99.90
64143;DHT22;50437;51.970;5.904;2023-04-16T15:50:43;14.00;99.90
64143;DHT22;50437;51.970;5.904;2023-04-16T15:53:09;13.90;99.90